Time;durP1;ratioP1;P1;durP2;ratioP2;P2;SDS_P1;SDS_P2;PMS_P1;PMS_P2;Temp;Humidity;BMP_temperature;BMP_pressure;BME280_temperature;BME280_humidity;BME280_pressure;Samples;Min_cycle;Max_cycle;Signal;HPM_P1;HPM_P2
2024/02/07 00:02:47;;;;;;;4.10;2.15;;;;;;;;;;6145348;23;20026;-53
2024/02/07 00:05:34;;;;;;;3.42;2.25;;;;;;;;;;6144997;23;20026;-54
2024/02/07 00:08:28;;;;;;;3.97;2.17;;;;;;;;;;6145429;23;20543;-48
2024/02/07 00:11:15;;;;;;;3.78;2.30;;;;;;;;;;6145328;23;20119;-50
2024/02/07 00:14:09;;;;;;;4.32;2.35;;;;;;;;;;6144676;23;20021;-58
2024/02/07 00:16:57;;;;;;;3.78;2.13;;;;;;;;;;6144048;23;20100;-49
2024/02/07 00:19:37;;;;;;;6.05;2.50;;;;;;;;;;6143863;23;20026;-51
2024/02/07 00:22:11;;;;;;;3.65;2.20;;;;;;;;;;6144760;23;20352;-54
2024/02/07 00:24:44;;;;;;;3.38;2.17;;;;;;;;;;6145078;23;20080;-53
2024/02/07 00:27:11;;;;;;;;;;;;;;;;;;6144454;23;20061;-53
2024/02/07 00:29:39;;;;;;;4.28;2.50;;;;;;;;;;6143727;23;19927;-53
2024/02/07 00:32:13;;;;;;;3.70;2.05;;;;;;;;;;6144545;23;20033;-58
2024/02/07 00:34:41;;;;;;;5.97;2.22;;;;;;;;;;6144476;23;20475;-54
2024/02/07 00:37:14;;;;;;;6.80;1.92;;;;;;;;;;6143725;23;20032;-57
2024/02/07 00:39:44;;;;;;;4.47;2.28;;;;;;;;;;6146227;23;20056;-56
2024/02/07 00:42:11;;;;;;;3.67;2.20;;;;;;;;;;6143292;23;20025;-46
2024/02/07 00:44:45;;;;;;;2.58;1.77;;;;;;;;;;6144180;23;20025;-60
2024/02/07 00:47:12;;;;;;;2.78;2.08;;;;;;;;;;6143004;23;20100;-60
2024/02/07 00:49:46;;;;;;;4.65;2.38;;;;;;;;;;6142386;23;20029;-59
2024/02/07 00:52:14;;;;;;;4.32;2.20;;;;;;;;;;6141897;23;20026;-60
2024/02/07 00:54:41;;;;;;;;;;;;;;;;;;6144978;23;20040;-61
2024/02/07 00:57:15;;;;;;;3.83;1.92;;;;;;;;;;6144144;23;19921;-59
2024/02/07 00:59:42;;;;;;;;;;;;;;;;;;6145896;23;20076;-61
2024/02/07 01:02:16;;;;;;;2.67;1.83;;;;;;;;;;6144054;23;19916;-61
2024/02/07 01:04:44;;;;;;;9.05;2.03;;;;;;;;;;6143587;23;20538;-61
2024/02/07 01:07:11;;;;;;;;;;;;;;;;;;6146336;23;20030;-61
2024/02/07 01:09:45;;;;;;;4.43;2.47;;;;;;;;;;6146428;23;19995;-54
2024/02/07 01:12:13;;;;;;;;;;;;;;;;;;6145237;23;20037;-61
2024/02/07 01:14:46;;;;;;;3.30;2.08;;;;;;;;;;6145728;23;19983;-53
2024/02/07 01:17:13;;;;;;;4.20;2.40;;;;;;;;;;6143995;23;20077;-49
2024/02/07 01:19:40;;;;;;;3.00;2.10;;;;;;;;;;6143052;23;20026;-49
2024/02/07 01:22:21;;;;;;;4.40;2.03;;;;;;;;;;6145174;23;20100;-52
2024/02/07 01:24:48;;;;;;;3.75;2.00;;;;;;;;;;6142630;23;20025;-53
2024/02/07 01:27:22;;;;;;;3.90;2.30;;;;;;;;;;6143337;23;20623;-52
2024/02/07 01:29:49;;;;;;;6.40;2.30;;;;;;;;;;6141910;23;20025;-61
2024/02/07 01:32:23;;;;;;;4.15;2.10;;;;;;;;;;6142956;23;20025;-62
2024/02/07 01:34:50;;;;;;;;;;;;;;;;;;6141107;23;20021;-61
2024/02/07 01:37:18;;;;;;;3.63;2.05;;;;;;;;;;6144358;23;19920;-61
2024/02/07 01:39:53;;;;;;;3.75;2.15;;;;;;;;;;6144677;23;20029;-56
2024/02/07 01:42:20;;;;;;;3.35;2.30;;;;;;;;;;6143223;23;20021;-61
2024/02/07 01:45:10;;;;;;;4.30;2.33;;;;;;;;;;6143787;23;20103;-62
2024/02/07 01:47:37;;;;;;;3.90;2.05;;;;;;;;;;6141836;23;20403;-62
2024/02/07 01:50:11;;;;;;;3.67;2.30;;;;;;;;;;6143754;23;20541;-62
2024/02/07 01:52:39;;;;;;;;;;;;;;;;;;6116247;23;20030;-61
2024/02/07 01:55:07;;;;;;;3.15;2.10;;;;;;;;;;6144518;23;20109;-62
2024/02/07 01:57:41;;;;;;;2.58;1.90;;;;;;;;;;6144707;23;20341;-48
2024/02/07 02:00:10;;;;;;;3.13;2.30;;;;;;;;;;6145299;23;20033;-52
2024/02/07 02:02:48;;;;;;;3.78;2.17;;;;;;;;;;6144567;23;20018;-47
2024/02/07 02:05:15;;;;;;;8.23;2.55;;;;;;;;;;6145794;23;20025;-51
2024/02/07 02:07:42;;;;;;;;;;;;;;;;;;6146574;23;20021;-58
2024/02/07 02:10:17;;;;;;;2.92;1.90;;;;;;;;;;6148117;23;19971;-50
2024/02/07 02:12:45;;;;;;;2.67;1.98;;;;;;;;;;6147120;23;20120;-55
2024/02/07 02:15:13;;;;;;;3.03;2.10;;;;;;;;;;6147341;23;20080;-54
2024/02/07 02:17:46;;;;;;;3.33;2.10;;;;;;;;;;6145026;23;20029;-52
2024/02/07 02:20:14;;;;;;;2.28;2.05;;;;;;;;;;6146485;23;20029;-55
2024/02/07 02:23:02;;;;;;;3.53;1.90;;;;;;;;;;6145875;23;20060;-51
2024/02/07 02:25:44;;;;;;;4.05;1.95;;;;;;;;;;6145841;23;20028;-64
2024/02/07 02:28:36;;;;;;;3.03;2.10;;;;;;;;;;6145142;23;20025;-64
2024/02/07 02:31:06;;;;;;;3.35;2.17;;;;;;;;;;6147509;23;20028;-63
2024/02/07 02:33:41;;;;;;;2.63;1.73;;;;;;;;;;6145230;23;20080;-64
2024/02/07 02:36:10;;;;;;;4.47;2.20;;;;;;;;;;6145145;23;20057;-63
2024/02/07 02:38:37;;;;;;;4.00;2.13;;;;;;;;;;6144645;23;20554;-62
2024/02/07 02:41:14;;;;;;;3.95;2.17;;;;;;;;;;6142434;23;20084;-62
2024/02/07 02:43:41;;;;;;;3.55;2.40;;;;;;;;;;6137776;23;20679;-60
2024/02/07 02:46:16;;;;;;;3.30;2.20;;;;;;;;;;6143267;23;20108;-62
2024/02/07 02:48:43;;;;;;;3.95;2.28;;;;;;;;;;6144749;23;20132;-62
2024/02/07 02:51:11;;;;;;;2.85;1.73;;;;;;;;;;6143391;23;20021;-62
2024/02/07 02:53:44;;;;;;;3.30;2.08;;;;;;;;;;6145869;23;20025;-64
2024/02/07 02:56:12;;;;;;;;;;;;;;;;;;6145020;23;20100;-65
2024/02/07 02:58:46;;;;;;;3.38;2.15;;;;;;;;;;6144671;23;19924;-64
2024/02/07 03:01:13;;;;;;;4.68;1.95;;;;;;;;;;6147406;23;20021;-63
2024/02/07 03:03:53;;;;;;;3.72;2.10;;;;;;;;;;6144692;23;20032;-59
2024/02/07 03:06:31;;;;;;;3.30;2.05;;;;;;;;;;6146106;23;20076;-58
2024/02/07 03:09:19;;;;;;;3.22;2.10;;;;;;;;;;6121743;23;20017;-63
2024/02/07 03:11:48;;;;;;;3.05;1.75;;;;;;;;;;6143362;23;20392;-64
2024/02/07 03:14:22;;;;;;;3.90;2.20;;;;;;;;;;6146104;23;20033;-63
2024/02/07 03:16:50;;;;;;;2.55;1.88;;;;;;;;;;6144940;23;20534;-64
2024/02/07 03:19:17;;;;;;;3.53;1.83;;;;;;;;;;6120266;23;20040;-64
2024/02/07 03:22:01;;;;;;;3.67;1.90;;;;;;;;;;6145677;23;20056;-62
2024/02/07 03:24:28;;;;;;;3.35;1.88;;;;;;;;;;6146095;23;20025;-62
2024/02/07 03:27:03;;;;;;;5.07;2.17;;;;;;;;;;6144726;23;20088;-62
2024/02/07 03:29:32;;;;;;;4.05;2.30;;;;;;;;;;6144936;23;20025;-61
2024/02/07 03:32:00;;;;;;;2.10;1.58;;;;;;;;;;6144375;23;20407;-62
2024/02/07 03:34:33;;;;;;;2.97;1.77;;;;;;;;;;6143662;23;20052;-61
2024/02/07 03:37:00;;;;;;;;;;;;;;;;;;6146518;23;20025;-55
2024/02/07 03:39:28;;;;;;;2.83;2.00;;;;;;;;;;6145793;23;19920;-54
2024/02/07 03:42:02;;;;;;;3.00;1.85;;;;;;;;;;6144327;23;20044;-56
2024/02/07 03:44:29;;;;;;;3.88;2.00;;;;;;;;;;6144045;23;20411;-54
2024/02/07 03:47:03;;;;;;;3.15;2.00;;;;;;;;;;6144143;23;20026;-53
2024/02/07 03:49:31;;;;;;;2.70;1.65;;;;;;;;;;6145539;23;20417;-56
2024/02/07 03:51:58;;;;;;;2.80;1.65;;;;;;;;;;6143741;23;20120;-64
2024/02/07 03:54:32;;;;;;;2.63;1.83;;;;;;;;;;6144360;23;20033;-63
2024/02/07 03:56:59;;;;;;;3.58;1.80;;;;;;;;;;6142484;23;20539;-65
2024/02/07 03:59:33;;;;;;;2.55;1.88;;;;;;;;;;6145264;23;20022;-64
2024/02/07 04:02:00;;;;;;;;;;;;;;;;;;6143700;23;20029;-51
2024/02/07 04:04:28;;;;;;;5.72;1.70;;;;;;;;;;6145624;23;20549;-56
2024/02/07 04:07:01;;;;;;;3.40;1.85;;;;;;;;;;6145525;23;20069;-54
2024/02/07 04:09:30;;;;;;;;;;;;;;;;;;6145569;23;20026;-57
2024/02/07 05:16:37;;;;;;;2.92;2.15;;;;;;;;;;6147680;23;20048;-64
2024/02/07 05:19:11;;;;;;;2.78;1.90;;;;;;;;;;6146298;23;20485;-64
2024/02/07 05:21:44;;;;;;;4.38;2.00;;;;;;;;;;6143806;23;20355;-64
2024/02/07 05:24:18;;;;;;;3.53;2.20;;;;;;;;;;6143259;23;20407;-64
2024/02/07 05:26:45;;;;;;;4.07;2.05;;;;;;;;;;6144117;23;20022;-59
2024/02/07 05:29:16;;;;;;;1.77;1.60;;;;;;;;;;6143470;23;20475;-63
2024/02/07 05:31:50;;;;;;;4.10;2.03;;;;;;;;;;6144451;23;20479;-64
2024/02/07 05:34:21;;;;;;;2.65;1.90;;;;;;;;;;6144631;23;20037;-64
2024/02/07 05:36:55;;;;;;;4.65;2.17;;;;;;;;;;6143445;23;20021;-63
2024/02/07 05:39:23;;;;;;;2.97;2.25;;;;;;;;;;6144442;23;20381;-63
2024/02/07 05:41:50;;;;;;;6.05;2.53;;;;;;;;;;6144006;23;20029;-64
2024/02/07 05:44:24;;;;;;;2.95;1.95;;;;;;;;;;6142329;23;20026;-55
2024/02/07 05:46:51;;;;;;;3.70;1.98;;;;;;;;;;6141151;23;20044;-53
2024/02/07 05:49:25;;;;;;;3.70;2.10;;;;;;;;;;6117026;23;20494;-52
2024/02/07 05:51:59;;;;;;;6.40;2.30;;;;;;;;;;6138102;23;20184;-56
2024/02/07 05:54:33;;;;;;;3.95;2.40;;;;;;;;;;6144603;23;20575;-60
2024/02/07 05:57:01;;;;;;;4.05;2.33;;;;;;;;;;6117896;23;20028;-64
2024/02/07 05:59:28;;;;;;;3.42;2.00;;;;;;;;;;6146211;23;20184;-64
2024/02/07 06:02:02;;;;;;;3.72;2.30;;;;;;;;;;6146807;23;20022;-64
2024/02/07 06:04:29;;;;;;;3.70;2.40;;;;;;;;;;6147847;23;20518;-64
2024/02/07 06:07:03;;;;;;;6.40;2.33;;;;;;;;;;6147914;23;20026;-64
2024/02/07 06:09:31;;;;;;;;;;;;;;;;;;6146877;23;20056;-64
2024/02/07 06:12:01;;;;;;;7.43;2.55;;;;;;;;;;6147168;23;19921;-64
2024/02/07 06:14:34;;;;;;;5.97;2.33;;;;;;;;;;6147392;23;20033;-54
2024/02/07 06:17:02;;;;;;;5.32;2.50;;;;;;;;;;6146754;23;20036;-57
2024/02/07 06:19:35;;;;;;;6.72;2.30;;;;;;;;;;6147965;23;20087;-52
2024/02/07 06:22:11;;;;;;;3.60;1.98;;;;;;;;;;6147486;23;20104;-54
2024/02/07 06:24:46;;;;;;;5.00;1.90;;;;;;;;;;6146721;23;20021;-59
2024/02/07 06:27:13;;;;;;;3.53;2.10;;;;;;;;;;6147428;23;20029;-63
2024/02/07 06:29:40;;;;;;;4.63;2.30;;;;;;;;;;6146372;23;20067;-64
2024/02/07 06:32:13;;;;;;;5.50;2.90;;;;;;;;;;6146401;23;20025;-63
2024/02/07 06:34:40;;;;;;;;;;;;;;;;;;6122268;23;20063;-64
2024/02/07 06:37:14;;;;;;;4.43;2.60;;;;;;;;;;6147773;23;20007;-63
2024/02/07 06:39:42;;;;;;;;;;;;;;;;;;6146675;23;20100;-64
2024/02/07 06:42:09;;;;;;;2.95;2.08;;;;;;;;;;6147059;23;20286;-63
2024/02/07 06:44:42;;;;;;;4.22;2.50;;;;;;;;;;6146329;23;20025;-64
2024/02/07 06:47:11;;;;;;;3.92;2.50;;;;;;;;;;6146786;23;20072;-64
2024/02/07 06:49:45;;;;;;;5.95;2.40;;;;;;;;;;6148261;23;20022;-63
2024/02/07 06:52:19;;;;;;;4.00;2.33;;;;;;;;;;6147817;23;20333;-64
2024/02/07 06:54:53;;;;;;;4.72;2.45;;;;;;;;;;6146890;23;20064;-63
2024/02/07 06:57:20;;;;;;;3.28;2.45;;;;;;;;;;6146170;23;20088;-64
2024/02/07 06:59:48;;;;;;;3.95;2.22;;;;;;;;;;6147116;23;20108;-64
2024/02/07 07:02:21;;;;;;;5.15;2.30;;;;;;;;;;6145939;23;20111;-64
2024/02/07 07:04:49;;;;;;;5.38;2.45;;;;;;;;;;6148074;23;20021;-64
2024/02/07 07:07:16;;;;;;;3.90;2.30;;;;;;;;;;6147805;23;20362;-65
2024/02/07 07:09:50;;;;;;;5.13;2.60;;;;;;;;;;6146194;23;20005;-64
2024/02/07 07:12:19;;;;;;;4.63;3.13;;;;;;;;;;6146670;23;20364;-63
2024/02/07 07:14:46;;;;;;;4.63;2.30;;;;;;;;;;6120832;23;20036;-63
2024/02/07 07:17:19;;;;;;;3.78;2.50;;;;;;;;;;6146788;23;20084;-64
2024/02/07 07:19:47;;;;;;;5.03;2.25;;;;;;;;;;6147956;23;20033;-59
2024/02/07 07:22:27;;;;;;;3.42;2.47;;;;;;;;;;6146312;23;20048;-61
2024/02/07 07:24:55;;;;;;;6.05;2.90;;;;;;;;;;6146215;23;20060;-59
2024/02/07 07:27:30;;;;;;;4.53;2.47;;;;;;;;;;6146359;23;20037;-60
2024/02/07 07:29:57;;;;;;;6.97;2.58;;;;;;;;;;6145429;23;20077;-58
2024/02/07 07:32:24;;;;;;;7.35;2.45;;;;;;;;;;6147326;23;20030;-59
2024/02/07 07:34:59;;;;;;;5.55;2.28;;;;;;;;;;6147901;23;20052;-61
2024/02/07 07:37:27;;;;;;;6.53;2.70;;;;;;;;;;6146470;23;20040;-60
2024/02/07 07:40:03;;;;;;;3.58;2.47;;;;;;;;;;6147772;23;20021;-61
2024/02/07 07:42:31;;;;;;;3.65;2.00;;;;;;;;;;6145356;23;20072;-61
2024/02/07 07:44:58;;;;;;;3.67;2.45;;;;;;;;;;6145551;23;20431;-60
2024/02/07 07:47:33;;;;;;;3.88;2.33;;;;;;;;;;6146213;23;20025;-61
2024/02/07 07:50:00;;;;;;;4.10;2.78;;;;;;;;;;6147645;23;20026;-64
2024/02/07 07:52:35;;;;;;;2.92;2.40;;;;;;;;;;6145845;23;20062;-64
2024/02/07 07:55:02;;;;;;;;;;;;;;;;;;6147126;23;20096;-63
2024/02/07 07:57:29;;;;;;;3.03;2.42;;;;;;;;;;6144808;23;19924;-64
2024/02/07 08:00:03;;;;;;;5.38;2.92;;;;;;;;;;6146019;23;20463;-64
2024/02/07 08:02:30;;;;;;;;;;;;;;;;;;6146707;23;20163;-64
2024/02/07 08:05:05;;;;;;;3.33;2.08;;;;;;;;;;6147468;23;19920;-63
2024/02/07 08:07:33;;;;;;;5.65;2.55;;;;;;;;;;6146010;23;20029;-52
2024/02/07 08:10:00;;;;;;;7.55;2.42;;;;;;;;;;6146643;23;20096;-54
2024/02/07 08:12:34;;;;;;;4.07;2.05;;;;;;;;;;6146120;23;20095;-53
2024/02/07 08:15:06;;;;;;;4.30;2.78;;;;;;;;;;6146004;23;20096;-54
2024/02/07 08:17:40;;;;;;;5.97;2.70;;;;;;;;;;6144902;23;20508;-58
2024/02/07 08:20:07;;;;;;;;;;;;;;;;;;6148272;23;20407;-60
2024/02/07 08:22:41;;;;;;;4.03;2.53;;;;;;;;;;6144962;23;19916;-61
2024/02/07 08:25:15;;;;;;;2.95;2.03;;;;;;;;;;6145668;23;20471;-61
2024/02/07 08:27:43;;;;;;;;;;;;;;;;;;6145691;23;20022;-60
2024/02/07 08:30:16;;;;;;;4.78;2.20;;;;;;;;;;6145824;23;19964;-60
2024/02/07 08:32:44;;;;;;;4.32;2.53;;;;;;;;;;6145609;23;20072;-61
2024/02/07 08:35:11;;;;;;;3.22;2.28;;;;;;;;;;6147313;23;20025;-64
2024/02/07 08:37:45;;;;;;;3.53;2.20;;;;;;;;;;6146323;23;20021;-62
2024/02/07 08:40:12;;;;;;;;;;;;;;;;;;6147084;23;20022;-61
2024/02/07 08:42:52;;;;;;;4.15;2.10;;;;;;;;;;6144028;23;20079;-64
2024/02/07 08:45:20;;;;;;;4.65;2.58;;;;;;;;;;6145642;23;20084;-62
2024/02/07 08:47:54;;;;;;;4.45;2.90;;;;;;;;;;6144615;23;20025;-63
2024/02/07 08:50:28;;;;;;;9.75;3.08;;;;;;;;;;6145371;23;20045;-64
2024/02/07 08:53:02;;;;;;;4.95;2.78;;;;;;;;;;6146514;23;20404;-63
2024/02/07 08:55:30;;;;;;;6.18;3.05;;;;;;;;;;6146263;23;20033;-63
2024/02/07 08:57:58;;;;;;;5.25;2.75;;;;;;;;;;6143979;23;20022;-63
2024/02/07 09:00:33;;;;;;;7.20;3.25;;;;;;;;;;6145954;23;20045;-63
2024/02/07 09:03:01;;;;;;;5.82;3.00;;;;;;;;;;6145197;23;20026;-63
2024/02/07 09:05:28;;;;;;;8.25;3.42;;;;;;;;;;6147381;23;20017;-61
2024/02/07 09:08:02;;;;;;;6.63;3.53;;;;;;;;;;6145685;23;20022;-61
2024/02/07 09:10:30;;;;;;;;;;;;;;;;;;6147935;23;20083;-61
2024/02/07 09:13:04;;;;;;;6.97;3.40;;;;;;;;;;6144891;23;19920;-57
2024/02/07 09:15:32;;;;;;;7.50;3.58;;;;;;;;;;6145309;23;20033;-59
2024/02/07 09:17:59;;;;;;;9.52;3.60;;;;;;;;;;6119639;23;20021;-55
2024/02/07 09:20:40;;;;;;;8.13;3.78;;;;;;;;;;6145803;23;20033;-58
2024/02/07 09:23:14;;;;;;;9.43;3.58;;;;;;;;;;6146798;23;20178;-58
2024/02/07 09:25:47;;;;;;;5.85;3.65;;;;;;;;;;6145764;23;20026;-59
2024/02/07 09:28:15;;;;;;;;;;;;;;;;;;6145054;23;20479;-58
2024/02/07 09:30:42;;;;;;;8.70;3.33;;;;;;;;;;6145197;23;20446;-59
2024/02/07 09:33:15;;;;;;;7.35;3.28;;;;;;;;;;6145149;23;20022;-56
2024/02/07 09:35:43;;;;;;;;;;;;;;;;;;6145231;23;20031;-59
2024/02/07 09:38:20;;;;;;;7.13;3.65;;;;;;;;;;6146150;23;19975;-58
2024/02/07 09:40:50;;;;;;;9.57;3.30;;;;;;;;;;6145897;23;20034;-56
2024/02/07 09:43:24;;;;;;;5.43;3.20;;;;;;;;;;6144559;23;20053;-63
2024/02/07 09:45:58;;;;;;;6.82;3.20;;;;;;;;;;6144606;23;20632;-50
2024/02/07 09:48:39;;;;;;;6.45;3.67;;;;;;;;;;6145223;23;20022;-54
2024/02/07 09:51:14;;;;;;;6.38;3.50;;;;;;;;;;6145131;23;20430;-55
2024/02/07 09:53:50;;;;;;;6.38;3.25;;;;;;;;;;6144965;23;20021;-55
2024/02/07 09:56:17;;;;;;;4.75;3.15;;;;;;;;;;6147438;23;20375;-56
2024/02/07 09:58:45;;;;;;;6.78;3.38;;;;;;;;;;6145250;23;20026;-55
2024/02/07 10:01:19;;;;;;;6.88;3.40;;;;;;;;;;6145905;23;20030;-57
2024/02/07 10:03:48;;;;;;;4.68;2.83;;;;;;;;;;6143613;23;20021;-57
2024/02/07 10:06:23;;;;;;;6.07;3.15;;;;;;;;;;6145000;23;20033;-58
2024/02/07 10:08:57;;;;;;;6.82;3.72;;;;;;;;;;6144616;23;20030;-58
2024/02/07 10:11:26;;;;;;;9.50;3.38;;;;;;;;;;6145260;23;20029;-58
2024/02/07 10:14:00;;;;;;;6.88;3.33;;;;;;;;;;6145044;23;20025;-52
2024/02/07 10:16:28;;;;;;;6.97;3.25;;;;;;;;;;6145020;23;20037;-51
2024/02/07 10:18:56;;;;;;;6.57;3.40;;;;;;;;;;6144434;23;20486;-47
2024/02/07 10:21:37;;;;;;;5.55;3.25;;;;;;;;;;6144517;23;20029;-50
2024/02/07 10:24:05;;;;;;;5.40;2.78;;;;;;;;;;6122205;23;20400;-50
2024/02/07 10:26:38;;;;;;;5.43;2.83;;;;;;;;;;6147831;23;20340;-48
2024/02/07 10:29:07;;;;;;;5.78;3.05;;;;;;;;;;6147165;23;20088;-53
2024/02/07 10:31:40;;;;;;;7.13;2.90;;;;;;;;;;6146639;23;20466;-47
2024/02/07 10:34:26;;;;;;;6.72;3.17;;;;;;;;;;6145202;23;20036;-50
2024/02/07 10:37:00;;;;;;;6.10;2.88;;;;;;;;;;6146310;23;20025;-53
2024/02/07 10:39:28;;;;;;;9.75;3.45;;;;;;;;;;6146105;23;20208;-56
2024/02/07 10:41:58;;;;;;;4.85;2.90;;;;;;;;;;6146859;23;20025;-62
2024/02/07 10:44:31;;;;;;;10.15;3.47;;;;;;;;;;6148381;23;20025;-53
2024/02/07 10:46:59;;;;;;;7.80;3.58;;;;;;;;;;6147085;23;20025;-57
2024/02/07 10:49:33;;;;;;;7.47;3.55;;;;;;;;;;6143993;23;20033;-58
2024/02/07 10:52:01;;;;;;;6.90;3.33;;;;;;;;;;6146577;23;20021;-56
2024/02/07 10:54:38;;;;;;;5.85;3.28;;;;;;;;;;6145814;23;20025;-57
2024/02/07 10:57:06;;;;;;;8.20;3.65;;;;;;;;;;6146367;23;20021;-56
2024/02/07 10:59:36;;;;;;;7.03;3.30;;;;;;;;;;6147514;23;20474;-61
2024/02/07 11:02:17;;;;;;;11.23;3.50;;;;;;;;;;6146777;23;20029;-62
2024/02/07 11:04:45;;;;;;;6.38;3.50;;;;;;;;;;6145381;23;20021;-62
2024/02/07 11:07:19;;;;;;;6.60;3.47;;;;;;;;;;6146695;23;20025;-62
2024/02/07 11:09:47;;;;;;;4.78;3.20;;;;;;;;;;6145181;23;20032;-62
2024/02/07 11:12:15;;;;;;;6.32;3.35;;;;;;;;;;6146225;23;20030;-61
2024/02/07 11:14:50;;;;;;;6.88;3.55;;;;;;;;;;6146670;23;20032;-61
2024/02/07 11:17:17;;;;;;;6.78;3.60;;;;;;;;;;6147208;23;20049;-62
2024/02/07 11:19:52;;;;;;;9.18;3.30;;;;;;;;;;6146603;23;20029;-62
2024/02/07 11:22:39;;;;;;;8.57;3.67;;;;;;;;;;6146596;23;20029;-61
2024/02/07 11:25:21;;;;;;;6.10;3.30;;;;;;;;;;6145718;23;20029;-62
2024/02/07 11:27:52;;;;;;;5.25;3.42;;;;;;;;;;6145765;23;20432;-57
2024/02/07 11:30:26;;;;;;;7.85;3.08;;;;;;;;;;6147093;23;20033;-56
2024/02/07 11:32:53;;;;;;;;;;;;;;;;;;6146236;23;20355;-57
2024/02/07 11:35:31;;;;;;;7.28;3.50;;;;;;;;;;6146978;23;19920;-59
2024/02/07 11:38:02;;;;;;;5.80;2.92;;;;;;;;;;6146656;23;20021;-58
2024/02/07 11:40:39;;;;;;;8.20;2.90;;;;;;;;;;6146453;23;20096;-59
2024/02/07 11:43:09;;;;;;;8.63;2.97;;;;;;;;;;6144533;23;20025;-59
2024/02/07 11:45:43;;;;;;;5.72;3.00;;;;;;;;;;6145655;23;20021;-56
2024/02/07 11:48:23;;;;;;;4.93;2.95;;;;;;;;;;6145817;23;20223;-59
2024/02/07 11:51:05;;;;;;;5.90;3.25;;;;;;;;;;6146450;23;20021;-57
2024/02/07 11:53:40;;;;;;;10.88;3.80;;;;;;;;;;6146981;23;20026;-57
2024/02/07 11:56:11;;;;;;;5.65;3.15;;;;;;;;;;6146469;23;20056;-59
2024/02/07 11:58:39;;;;;;;5.18;3.03;;;;;;;;;;6144874;23;20199;-60
2024/02/07 12:01:13;;;;;;;8.55;3.42;;;;;;;;;;6145266;23;20022;-59
2024/02/07 12:03:54;;;;;;;5.57;3.33;;;;;;;;;;6145268;23;20029;-60
2024/02/07 12:06:21;;;;;;;7.30;2.72;;;;;;;;;;6145438;23;20479;-57
2024/02/07 12:08:55;;;;;;;5.28;2.63;;;;;;;;;;6146341;23;20443;-60
2024/02/07 12:11:23;;;;;;;;;;;;;;;;;;6147502;23;20029;-59
2024/02/07 12:13:56;;;;;;;5.97;3.15;;;;;;;;;;6145758;23;19927;-60
2024/02/07 12:16:24;;;;;;;6.22;2.92;;;;;;;;;;6145225;23;20535;-59
2024/02/07 12:18:51;;;;;;;7.72;3.03;;;;;;;;;;6144506;23;20084;-59
2024/02/07 12:21:32;;;;;;;4.40;2.67;;;;;;;;;;6145371;23;20534;-59
2024/02/07 12:24:07;;;;;;;6.32;2.53;;;;;;;;;;6146810;23;20087;-53
2024/02/07 12:26:41;;;;;;;5.63;2.40;;;;;;;;;;6146779;23;20021;-54
2024/02/07 12:29:08;;;;;;;5.18;2.28;;;;;;;;;;6146224;23;20033;-51
2024/02/07 12:31:36;;;;;;;4.95;2.33;;;;;;;;;;6144714;23;20025;-52
2024/02/07 12:34:10;;;;;;;5.13;2.60;;;;;;;;;;6145187;23;20030;-63
2024/02/07 12:36:37;;;;;;;4.53;2.28;;;;;;;;;;6146077;23;20032;-63
2024/02/07 12:39:11;;;;;;;5.90;2.28;;;;;;;;;;6145412;23;20025;-62
2024/02/07 12:41:39;;;;;;;2.88;1.98;;;;;;;;;;6146591;23;20032;-62
2024/02/07 12:44:08;;;;;;;3.05;1.88;;;;;;;;;;6145130;23;20384;-62
2024/02/07 12:46:42;;;;;;;2.80;1.80;;;;;;;;;;6145170;23;20053;-62
2024/02/07 12:49:10;;;;;;;3.88;2.22;;;;;;;;;;6144789;23;20032;-63
2024/02/07 12:51:37;;;;;;;4.53;2.78;;;;;;;;;;6145562;23;20080;-62
2024/02/07 12:54:11;;;;;;;5.03;2.42;;;;;;;;;;6146214;23;20029;-62
2024/02/07 12:56:39;;;;;;;4.32;2.42;;;;;;;;;;6144961;23;20025;-63
2024/02/07 12:59:13;;;;;;;3.95;2.40;;;;;;;;;;6145252;23;20021;-62
2024/02/07 13:01:40;;;;;;;3.55;2.40;;;;;;;;;;6145073;23;20479;-59
2024/02/07 13:04:07;;;;;;;3.70;2.38;;;;;;;;;;6144018;23;20025;-51
2024/02/07 13:06:42;;;;;;;4.80;2.10;;;;;;;;;;6144762;23;20021;-59
2024/02/07 13:09:10;;;;;;;4.93;2.33;;;;;;;;;;6146367;23;20061;-59
2024/02/07 13:11:38;;;;;;;3.20;2.10;;;;;;;;;;6145385;23;20022;-60
2024/02/07 13:14:11;;;;;;;5.43;2.38;;;;;;;;;;6145518;23;20029;-60
2024/02/07 13:16:39;;;;;;;5.15;2.92;;;;;;;;;;6145326;23;20026;-61
2024/02/07 13:19:13;;;;;;;7.85;3.03;;;;;;;;;;6144463;23;20100;-61
2024/02/07 13:21:41;;;;;;;4.68;2.58;;;;;;;;;;6144603;23;20665;-62
2024/02/07 13:24:22;;;;;;;2.92;2.33;;;;;;;;;;6145869;23;20036;-62
2024/02/07 13:26:51;;;;;;;3.00;1.85;;;;;;;;;;6146140;23;20029;-62
2024/02/07 13:29:24;;;;;;;5.90;2.67;;;;;;;;;;6146297;23;20029;-62
2024/02/07 13:31:52;;;;;;;3.47;2.35;;;;;;;;;;6145583;23;20025;-63
2024/02/07 13:34:21;;;;;;;3.35;2.00;;;;;;;;;;6144465;23;20040;-57
2024/02/07 13:36:56;;;;;;;3.83;2.22;;;;;;;;;;6120626;23;20029;-57
2024/02/07 13:39:25;;;;;;;4.57;2.20;;;;;;;;;;6144687;23;20017;-56
2024/02/07 13:41:59;;;;;;;3.28;2.00;;;;;;;;;;6146337;23;20555;-57
2024/02/07 13:44:26;;;;;;;3.20;1.95;;;;;;;;;;6145010;23;20029;-56
2024/02/07 13:46:54;;;;;;;3.78;1.88;;;;;;;;;;6145797;23;20022;-57
2024/02/07 13:49:28;;;;;;;2.80;1.92;;;;;;;;;;6144276;23;20017;-63
2024/02/07 13:51:55;;;;;;;2.80;1.98;;;;;;;;;;6144999;23;20397;-62
2024/02/07 13:54:28;;;;;;;2.25;1.52;;;;;;;;;;6145293;23;20108;-62
2024/02/07 13:56:56;;;;;;;;;;;;;;;;;;6146327;23;20047;-62
2024/02/07 13:59:23;;;;;;;6.20;2.70;;;;;;;;;;6147346;23;19920;-59
2024/02/07 14:01:59;;;;;;;2.90;2.10;;;;;;;;;;6145886;23;20112;-54
2024/02/07 14:04:26;;;;;;;2.50;1.80;;;;;;;;;;6146420;23;20031;-50
2024/02/07 14:07:01;;;;;;;2.35;1.67;;;;;;;;;;6147502;23;20022;-51
2024/02/07 14:09:28;;;;;;;3.30;1.95;;;;;;;;;;6147254;23;20021;-54
2024/02/07 14:11:55;;;;;;;3.30;1.98;;;;;;;;;;6147304;23;20460;-51
2024/02/07 14:14:29;;;;;;;2.58;1.63;;;;;;;;;;6148152;23;20064;-55
2024/02/07 14:16:57;;;;;;;2.70;1.83;;;;;;;;;;6147138;23;20025;-60
2024/02/07 14:19:24;;;;;;;3.30;1.98;;;;;;;;;;6147064;23;20022;-60
2024/02/07 14:22:06;;;;;;;2.50;1.67;;;;;;;;;;6145781;23;20036;-59
2024/02/07 14:24:33;;;;;;;2.60;1.63;;;;;;;;;;6146699;23;20049;-60
2024/02/07 14:27:11;;;;;;;2.65;1.83;;;;;;;;;;6147960;23;20022;-62
2024/02/07 14:29:38;;;;;;;2.42;1.45;;;;;;;;;;6146840;23;20025;-59
2024/02/07 14:32:05;;;;;;;2.67;1.73;;;;;;;;;;6145658;23;20053;-62
2024/02/07 14:34:39;;;;;;;2.35;1.80;;;;;;;;;;6146065;23;20080;-62
2024/02/07 14:37:07;;;;;;;;;;;;;;;;;;6146800;23;20025;-61
2024/02/07 14:39:40;;;;;;;3.55;2.20;;;;;;;;;;6146022;23;20607;-62
2024/02/07 14:42:08;;;;;;;3.53;1.80;;;;;;;;;;6148385;23;20022;-62
2024/02/07 14:44:35;;;;;;;2.97;2.00;;;;;;;;;;6145364;23;20032;-62
2024/02/07 14:47:08;;;;;;;3.13;1.98;;;;;;;;;;6146823;23;20030;-62
2024/02/07 14:49:36;;;;;;;2.92;1.50;;;;;;;;;;6145978;23;20104;-62
2024/02/07 14:52:10;;;;;;;1.80;1.52;;;;;;;;;;6146211;23;20025;-63
2024/02/07 14:54:41;;;;;;;3.28;2.03;;;;;;;;;;6145591;23;20498;-62
2024/02/07 14:57:08;;;;;;;2.10;1.88;;;;;;;;;;6148688;23;20022;-63
2024/02/07 14:59:42;;;;;;;4.53;2.20;;;;;;;;;;6146273;23;20467;-51
2024/02/07 15:02:10;;;;;;;;;;;;;;;;;;6147493;23;20025;-55
2024/02/07 15:04:43;;;;;;;3.22;2.00;;;;;;;;;;6146013;23;19917;-54
2024/02/07 15:07:11;;;;;;;1.80;1.70;;;;;;;;;;6145924;23;20109;-51
2024/02/07 15:10:05;;;;;;;3.17;1.88;;;;;;;;;;6145264;23;20053;-53
2024/02/07 15:12:52;;;;;;;3.15;1.88;;;;;;;;;;6145622;23;20029;-50
2024/02/07 15:15:46;;;;;;;2.53;1.90;;;;;;;;;;6145877;23;20028;-56
2024/02/07 15:18:33;;;;;;;2.80;2.25;;;;;;;;;;6146688;23;20534;-58
2024/02/07 15:21:33;;;;;;;6.50;4.80;;;;;;;;;;6147722;23;20033;-57
2024/02/07 15:24:27;;;;;;;7.22;4.60;;;;;;;;;;6146091;23;20423;-63
2024/02/07 15:27:20;;;;;;;12.80;6.70;;;;;;;;;;6146869;23;20088;-61
2024/02/07 15:30:11;;;;;;;3.78;2.60;;;;;;;;;;6148481;23;20399;-61
2024/02/07 15:33:04;;;;;;;4.75;2.40;;;;;;;;;;6149201;23;20025;-62
2024/02/07 15:35:53;;;;;;;4.65;2.20;;;;;;;;;;6145035;23;20025;-62
2024/02/07 15:38:45;;;;;;;3.05;2.15;;;;;;;;;;6146588;23;20022;-61
2024/02/07 15:41:36;;;;;;;2.05;1.73;;;;;;;;;;6146284;23;20078;-62
2024/02/07 15:44:29;;;;;;;3.00;2.20;;;;;;;;;;6144656;23;20025;-63
2024/02/07 15:47:18;;;;;;;3.55;2.70;;;;;;;;;;6145487;23;20025;-62
2024/02/07 15:50:10;;;;;;;3.28;2.50;;;;;;;;;;6146211;23;20060;-62
2024/02/07 15:53:00;;;;;;;3.50;2.55;;;;;;;;;;6145067;23;20025;-62
2024/02/07 15:55:55;;;;;;;4.47;2.55;;;;;;;;;;6143988;23;20222;-61
2024/02/07 15:58:41;;;;;;;3.75;2.05;;;;;;;;;;6144203;23;20033;-61
2024/02/07 16:01:34;;;;;;;2.75;2.28;;;;;;;;;;6145136;23;20018;-61
2024/02/07 16:04:22;;;;;;;2.75;2.03;;;;;;;;;;6144200;23;20109;-61
2024/02/07 16:07:16;;;;;;;3.90;2.28;;;;;;;;;;6145104;23;20031;-61
2024/02/07 16:10:10;;;;;;;3.92;1.98;;;;;;;;;;6145362;23;20141;-62
2024/02/07 16:13:03;;;;;;;7.65;2.28;;;;;;;;;;6145930;23;20724;-51
2024/02/07 16:15:57;;;;;;;2.30;1.95;;;;;;;;;;6146050;23;20029;-51
2024/02/07 16:18:45;;;;;;;3.88;2.17;;;;;;;;;;6147326;23;20053;-51
2024/02/07 16:21:45;;;;;;;3.45;2.03;;;;;;;;;;6147613;23;20088;-62
2024/02/07 16:24:39;;;;;;;2.97;2.17;;;;;;;;;;6146471;23;20036;-63
2024/02/07 16:27:33;;;;;;;3.55;2.42;;;;;;;;;;6147722;23;20029;-63
2024/02/07 16:30:20;;;;;;;3.33;2.17;;;;;;;;;;6146636;23;20025;-62
2024/02/07 16:33:13;;;;;;;3.33;2.58;;;;;;;;;;6147544;23;20026;-62